createdAt,value
2019-03-25T00:01:05.493Z,12.03
2019-03-25T00:03:36.680Z,16.23
2019-03-25T00:06:07.949Z,12.03
2019-03-25T00:08:38.987Z,11.53
2019-03-25T00:11:10.341Z,14.03
2019-03-25T00:13:41.273Z,9.97
2019-03-25T00:16:13.289Z,16.47
2019-03-25T00:18:44.434Z,18.50
2019-03-25T00:21:15.702Z,11.97
2019-03-25T00:23:46.741Z,12.70
2019-03-25T00:26:17.932Z,13.53
2019-03-25T00:28:50.088Z,10.38
2019-03-25T00:31:22.427Z,8.97
2019-03-25T00:33:53.582Z,7.57
2019-03-25T00:36:24.626Z,10.83
2019-03-25T00:38:55.744Z,8.17
2019-03-25T00:41:27.832Z,10.73
2019-03-25T00:43:59.143Z,13.13
2019-03-25T00:46:49.824Z,7.20
2019-03-25T00:49:20.865Z,6.83
2019-03-25T00:51:52.022Z,6.10
2019-03-25T00:54:23.051Z,5.97
2019-03-25T00:56:54.419Z,7.50
2019-03-25T00:59:25.409Z,18.13
2019-03-25T01:01:56.422Z,4.77
2019-03-25T01:04:27.676Z,9.10
2019-03-25T01:06:58.620Z,5.67
2019-03-25T01:09:29.534Z,11.00
2019-03-25T01:12:00.889Z,10.00
2019-03-25T01:14:31.958Z,6.73
2019-03-25T01:17:04.653Z,7.83
2019-03-25T01:19:36.047Z,6.43
2019-03-25T01:22:07.128Z,7.40
2019-03-25T01:24:38.308Z,9.47
2019-03-25T01:27:09.505Z,10.30
2019-03-25T01:29:40.599Z,12.63
2019-03-25T01:32:11.667Z,9.73
2019-03-25T01:34:43.197Z,5.90
2019-03-25T01:37:14.336Z,6.23
2019-03-25T01:39:45.417Z,6.27
2019-03-25T01:42:16.452Z,9.53
2019-03-25T01:44:47.896Z,5.43
2019-03-25T01:47:18.911Z,4.60
2019-03-25T01:49:51.012Z,14.03
2019-03-25T01:52:22.478Z,15.27
2019-03-25T01:54:53.485Z,7.73
2019-03-25T01:57:26.457Z,6.77
2019-03-25T01:59:57.388Z,10.73
2019-03-25T02:02:28.684Z,10.20
2019-03-25T02:05:00.037Z,7.57
2019-03-25T02:07:31.294Z,8.20
2019-03-25T02:10:02.260Z,17.10
2019-03-25T02:12:33.523Z,9.33
2019-03-25T02:15:04.540Z,11.53
2019-03-25T02:17:37.511Z,13.90
2019-03-25T02:20:08.625Z,9.63
2019-03-25T02:22:40.100Z,12.83
2019-03-25T02:25:11.387Z,7.57
2019-03-25T02:27:42.346Z,12.73
2019-03-25T02:30:13.594Z,8.75
2019-03-25T02:32:44.776Z,10.47
2019-03-25T02:35:16.129Z,7.50
2019-03-25T02:37:47.612Z,8.48
2019-03-25T02:40:18.732Z,9.00
2019-03-25T02:42:49.845Z,5.30
2019-03-25T02:45:21.399Z,6.13
2019-03-25T02:47:52.502Z,10.03
2019-03-25T02:50:23.611Z,12.57
2019-03-25T02:52:54.753Z,6.90
2019-03-25T02:55:40.489Z,15.32
2019-03-25T02:57:59.151Z,6.73
2019-03-25T03:00:37.748Z,9.18
2019-03-25T03:03:09.873Z,12.88
2019-03-25T03:05:41.122Z,8.20
2019-03-25T03:08:12.613Z,12.18
2019-03-25T03:10:43.723Z,7.92
2019-03-25T03:13:16.037Z,8.90
2019-03-25T03:15:47.359Z,5.87
2019-03-25T03:18:19.566Z,9.43
2019-03-25T03:20:50.611Z,6.05
2019-03-25T03:23:21.919Z,5.45
2019-03-25T03:25:57.593Z,8.15
2019-03-25T03:28:25.730Z,8.20
2019-03-25T03:30:56.785Z,9.50
2019-03-25T03:33:27.951Z,12.78
2019-03-25T03:35:59.187Z,11.05
2019-03-25T03:38:30.570Z,12.07
2019-03-25T03:41:01.559Z,5.80
2019-03-25T03:43:32.704Z,6.95
2019-03-25T03:46:03.913Z,5.30
2019-03-25T03:48:34.985Z,5.45
2019-03-25T03:51:07.953Z,8.85
2019-03-25T03:53:39.128Z,7.97
2019-03-25T03:56:13.631Z,6.55
2019-03-25T03:58:45.087Z,8.23
2019-03-25T04:01:16.149Z,10.78
2019-03-25T04:03:47.236Z,6.65
2019-03-25T04:06:18.369Z,7.87
2019-03-25T04:08:49.351Z,6.05
2019-03-25T04:11:20.525Z,21.27
2019-03-25T04:13:51.972Z,9.98
2019-03-25T04:16:22.966Z,8.67
2019-03-25T04:18:55.012Z,9.00
2019-03-25T04:21:26.051Z,8.83
2019-03-25T04:23:57.680Z,9.30
2019-03-25T04:26:29.695Z,12.30
2019-03-25T04:29:00.828Z,18.77
2019-03-25T04:31:31.804Z,12.70
2019-03-25T04:34:03.715Z,14.77
2019-03-25T04:36:34.868Z,51.27
2019-03-25T04:39:07.321Z,22.23
2019-03-25T04:41:38.600Z,37.23
2019-03-25T04:44:09.815Z,11.13
2019-03-25T04:46:40.968Z,12.33
2019-03-25T04:49:13.531Z,16.40
2019-03-25T04:51:45.091Z,13.33
2019-03-25T04:54:16.832Z,12.13
2019-03-25T04:56:47.835Z,12.23
2019-03-25T04:59:19.065Z,29.57
2019-03-25T05:01:50.165Z,16.03
2019-03-25T05:04:21.701Z,11.53
2019-03-25T05:06:52.932Z,14.77
2019-03-25T05:09:23.952Z,11.00
2019-03-25T05:11:55.604Z,13.47
2019-03-25T05:14:27.129Z,20.63
2019-03-25T05:16:58.237Z,9.13
2019-03-25T05:19:31.759Z,8.13
2019-03-25T05:22:02.713Z,15.47
2019-03-25T05:24:33.645Z,7.83
2019-03-25T05:27:04.823Z,9.40
2019-03-25T05:29:35.802Z,14.80
2019-03-25T05:32:06.855Z,13.10
2019-03-25T05:34:39.006Z,10.97
2019-03-25T05:37:10.268Z,12.40
2019-03-25T05:39:41.288Z,12.77
2019-03-25T05:42:12.555Z,10.53
2019-03-25T05:44:44.047Z,20.67
2019-03-25T05:47:16.725Z,11.00
2019-03-25T05:49:48.122Z,17.00
2019-03-25T05:52:19.785Z,14.17
2019-03-25T05:54:50.933Z,14.00
2019-03-25T05:57:22.150Z,14.33
2019-03-25T05:59:54.145Z,10.17
2019-03-25T06:02:25.279Z,14.10
2019-03-25T06:04:56.415Z,26.07
2019-03-25T06:07:28.505Z,23.67
2019-03-25T06:10:00.047Z,17.40
2019-03-25T06:12:31.104Z,12.93
2019-03-25T06:15:04.469Z,18.13
2019-03-25T06:17:35.728Z,13.83
2019-03-25T06:20:07.123Z,18.17
2019-03-25T06:22:38.197Z,20.50
2019-03-25T06:25:09.789Z,23.83
2019-03-25T06:27:40.958Z,18.73
2019-03-25T06:30:13.035Z,26.57
2019-03-25T06:32:44.028Z,26.43
2019-03-25T06:35:15.841Z,21.07
2019-03-25T06:37:46.909Z,26.83
2019-03-25T06:40:18.035Z,16.40
2019-03-25T06:42:49.675Z,18.50
2019-03-25T06:45:21.946Z,14.50
2019-03-25T06:47:53.004Z,18.63
2019-03-25T06:50:24.165Z,16.60
2019-03-25T06:52:55.219Z,14.07
2019-03-25T06:55:26.430Z,19.73
2019-03-25T06:57:57.469Z,12.30
2019-03-25T07:00:29.149Z,16.83
2019-03-25T07:03:03.059Z,20.63
2019-03-25T07:05:35.317Z,14.13
2019-03-25T07:08:06.354Z,12.23
2019-03-25T07:10:38.275Z,13.87
2019-03-25T07:13:10.434Z,22.47
2019-03-25T07:15:44.182Z,20.70
2019-03-25T07:18:15.614Z,19.57
2019-03-25T07:20:46.817Z,16.10
2019-03-25T07:23:17.843Z,18.13
2019-03-25T07:25:49.018Z,25.40
2019-03-25T07:28:20.399Z,29.93
2019-03-25T07:30:51.686Z,23.00
2019-03-25T07:33:22.927Z,20.00
2019-03-25T07:35:54.182Z,24.90
2019-03-25T07:38:26.257Z,21.70
2019-03-25T07:40:57.636Z,28.00
2019-03-25T07:43:30.083Z,23.10
2019-03-25T07:46:01.166Z,21.50
2019-03-25T07:48:32.458Z,18.00
2019-03-25T07:51:03.653Z,12.63
2019-03-25T07:53:34.763Z,14.47
2019-03-25T07:56:06.122Z,12.77
2019-03-25T07:58:37.543Z,13.57
2019-03-25T08:01:09.829Z,14.03
2019-03-25T08:03:40.823Z,14.23
2019-03-25T08:06:12.188Z,13.90
2019-03-25T08:08:43.456Z,16.90
2019-03-25T08:11:14.651Z,8.27
2019-03-25T08:13:46.066Z,8.93
2019-03-25T08:16:17.294Z,9.30
2019-03-25T08:18:48.350Z,11.27
2019-03-25T08:21:19.803Z,11.13
2019-03-25T08:23:50.822Z,8.87
2019-03-25T08:26:22.718Z,8.13
2019-03-25T08:28:53.966Z,7.07
2019-03-25T08:31:25.283Z,7.97
2019-03-25T08:33:56.485Z,8.17
2019-03-25T08:36:27.602Z,15.93
2019-03-25T08:38:58.495Z,6.77
2019-03-25T08:41:29.975Z,7.43
2019-03-25T08:44:00.807Z,8.03
2019-03-25T08:46:31.541Z,7.37
2019-03-25T08:49:02.845Z,9.30
2019-03-25T08:51:33.664Z,8.27
2019-03-25T08:54:04.608Z,10.80
2019-03-25T08:56:35.737Z,11.43
2019-03-25T08:59:06.687Z,15.40
2019-03-25T09:01:37.489Z,9.83
2019-03-25T09:04:08.687Z,5.80
2019-03-25T09:06:40.518Z,6.10
2019-03-25T09:09:11.449Z,8.00
2019-03-25T09:11:43.278Z,6.37
2019-03-25T09:14:14.242Z,6.73
2019-03-25T09:16:45.192Z,6.30
2019-03-25T09:19:16.452Z,6.83
2019-03-25T09:21:47.494Z,7.17
2019-03-25T09:24:18.623Z,7.47
2019-03-25T09:26:49.674Z,8.53
2019-03-25T09:29:20.367Z,8.90
2019-03-25T09:31:52.909Z,7.13
2019-03-25T09:34:23.997Z,9.67
2019-03-25T09:36:59.937Z,11.23
2019-03-25T09:39:40.201Z,7.37
2019-03-25T09:42:12.113Z,6.93
2019-03-25T09:44:42.913Z,7.00
2019-03-25T09:47:14.051Z,6.23
2019-03-25T09:49:44.985Z,6.90
2019-03-25T09:52:15.922Z,6.07
2019-03-25T09:54:46.917Z,8.37
2019-03-25T09:57:19.528Z,6.27
2019-03-25T09:59:51.324Z,11.43
2019-03-25T10:02:22.176Z,8.07
2019-03-25T10:04:52.897Z,6.90
2019-03-25T10:07:28.287Z,6.87
2019-03-25T10:09:58.370Z,6.23
2019-03-25T10:12:29.258Z,8.63
2019-03-25T10:15:00.652Z,8.10
2019-03-25T10:17:31.746Z,6.83
2019-03-25T10:20:02.754Z,11.27
2019-03-25T10:22:34.276Z,9.03
2019-03-25T10:25:06.773Z,6.23
2019-03-25T10:27:37.813Z,9.07
2019-03-25T10:30:09.539Z,13.47
2019-03-25T10:32:40.807Z,9.63
2019-03-25T10:35:12.215Z,7.40
2019-03-25T10:37:43.336Z,11.20
2019-03-25T10:40:14.744Z,14.57
2019-03-25T10:42:45.893Z,12.40
2019-03-25T10:45:18.260Z,11.93
2019-03-25T10:47:49.417Z,10.33
2019-03-25T10:50:20.589Z,20.63
2019-03-25T10:52:51.660Z,10.20
2019-03-25T10:55:23.240Z,15.33
2019-03-25T10:57:54.351Z,15.00
2019-03-25T11:00:25.471Z,13.93
2019-03-25T11:02:58.324Z,20.30
2019-03-25T11:05:29.518Z,11.30
2019-03-25T11:08:00.937Z,14.90
2019-03-25T11:10:33.557Z,12.40
2019-03-25T11:13:04.431Z,19.27
2019-03-25T11:15:36.792Z,18.90
2019-03-25T11:18:08.164Z,13.40
2019-03-25T11:20:39.433Z,10.43
2019-03-25T11:23:10.526Z,10.50
2019-03-25T11:25:43.377Z,12.30
2019-03-25T11:28:14.513Z,10.83
2019-03-25T11:31:02.205Z,8.40
2019-03-25T11:33:35.241Z,8.87
2019-03-25T11:36:06.738Z,13.07
2019-03-25T11:38:37.599Z,9.57
2019-03-25T11:41:08.928Z,9.57
2019-03-25T11:43:41.019Z,10.37
2019-03-25T11:46:11.915Z,8.37
2019-03-25T11:48:42.994Z,7.90
2019-03-25T11:51:13.960Z,12.83
2019-03-25T11:53:44.814Z,10.90
2019-03-25T11:56:17.011Z,9.97
2019-03-25T11:58:48.082Z,6.37
2019-03-25T12:01:19.377Z,15.13
2019-03-25T12:03:51.216Z,8.17
2019-03-25T12:06:22.103Z,10.13
2019-03-25T12:08:54.252Z,8.13
2019-03-25T12:11:25.236Z,8.53
2019-03-25T12:13:56.021Z,6.37
2019-03-25T12:16:27.765Z,6.33
2019-03-25T12:18:58.534Z,9.90
2019-03-25T12:21:29.369Z,10.77
2019-03-25T12:24:00.420Z,8.10
2019-03-25T12:26:32.498Z,10.63
2019-03-25T12:29:03.481Z,7.27
2019-03-25T12:31:34.652Z,11.83
2019-03-25T12:34:05.916Z,6.60
2019-03-25T12:36:37.050Z,11.23
2019-03-25T12:39:11.582Z,12.13
2019-03-25T12:41:43.023Z,7.30
2019-03-25T12:44:14.476Z,7.93
2019-03-25T12:46:45.593Z,6.50
2019-03-25T12:49:16.690Z,9.67
2019-03-25T12:51:48.654Z,22.13
2019-03-25T12:54:20.271Z,8.63
2019-03-25T12:56:51.107Z,10.77
2019-03-25T12:59:22.148Z,10.67
2019-03-25T13:01:53.523Z,9.87
2019-03-25T13:04:24.842Z,5.90
2019-03-25T13:06:57.493Z,10.50
2019-03-25T13:09:28.694Z,13.73
2019-03-25T13:12:00.241Z,6.60
2019-03-25T13:14:31.677Z,8.87
2019-03-25T13:17:02.693Z,14.33
2019-03-25T13:19:33.448Z,12.13
2019-03-25T13:22:04.594Z,14.43
2019-03-25T13:24:36.145Z,9.10
2019-03-25T13:27:08.428Z,10.33
2019-03-25T13:29:39.447Z,8.03
2019-03-25T13:32:10.828Z,18.80
2019-03-25T13:34:41.842Z,11.33
2019-03-25T13:37:12.785Z,12.03
2019-03-25T13:39:43.517Z,6.40
2019-03-25T13:42:15.186Z,8.70
2019-03-25T13:44:46.576Z,4.50
2019-03-25T13:47:17.573Z,5.20
2019-03-25T13:49:48.442Z,9.57
2019-03-25T13:52:20.371Z,8.53
2019-03-25T13:54:51.841Z,7.60
2019-03-25T13:57:23.254Z,4.00
2019-03-25T14:00:02.906Z,3.77
2019-03-25T14:02:27.086Z,7.40
2019-03-25T14:04:59.530Z,7.17
2019-03-25T14:07:30.688Z,4.97
2019-03-25T14:10:01.802Z,9.67
2019-03-25T14:12:32.854Z,8.10
2019-03-25T14:15:04.091Z,3.93
2019-03-25T14:17:35.201Z,8.63
2019-03-25T14:20:07.021Z,4.23
2019-03-25T14:22:38.430Z,3.97
2019-03-25T14:25:10.371Z,5.47
2019-03-25T14:27:42.355Z,8.17
2019-03-25T14:30:15.141Z,3.03
2019-03-25T14:32:46.183Z,4.40
2019-03-25T14:35:17.221Z,9.13
2019-03-25T14:37:48.197Z,8.27
2019-03-25T14:40:19.197Z,5.00
2019-03-25T14:42:49.935Z,12.90
2019-03-25T14:45:26.277Z,5.70
2019-03-25T14:47:53.287Z,6.63
2019-03-25T14:50:24.463Z,11.07
2019-03-25T14:52:55.438Z,5.63
2019-03-25T14:55:27.931Z,4.57
2019-03-25T14:57:59.000Z,6.00
2019-03-25T15:00:30.313Z,21.37
2019-03-25T15:03:02.022Z,9.20
2019-03-25T15:05:33.213Z,6.77
2019-03-25T15:08:04.123Z,6.33
2019-03-25T15:10:35.483Z,5.70
2019-03-25T15:13:07.361Z,5.83
2019-03-25T15:15:38.537Z,8.10
2019-03-25T15:18:15.448Z,8.37
2019-03-25T15:20:43.003Z,3.80
2019-03-25T15:23:15.032Z,12.53
2019-03-25T15:25:45.840Z,8.97
2019-03-25T15:28:17.863Z,9.20
2019-03-25T15:30:49.304Z,9.33
2019-03-25T15:33:20.558Z,7.40
2019-03-25T15:35:51.621Z,6.00
2019-03-25T15:38:22.617Z,3.93
2019-03-25T15:40:53.595Z,5.20
2019-03-25T15:43:24.569Z,8.47
2019-03-25T15:45:55.746Z,6.83
2019-03-25T15:48:26.788Z,5.50
2019-03-25T15:50:58.164Z,7.40
2019-03-25T15:53:29.229Z,11.10
2019-03-25T15:56:00.306Z,3.23
2019-03-25T15:58:31.353Z,5.30
2019-03-25T16:01:02.493Z,3.00
2019-03-25T16:03:33.799Z,8.60
2019-03-25T16:06:04.835Z,4.97
2019-03-25T16:08:36.200Z,8.13
2019-03-25T16:11:07.702Z,6.97
2019-03-25T16:13:39.360Z,8.13
2019-03-25T16:16:10.341Z,10.73
2019-03-25T16:18:42.755Z,17.10
2019-03-25T16:21:13.912Z,18.17
2019-03-25T16:23:45.134Z,6.30
2019-03-25T16:26:16.302Z,9.13
2019-03-25T16:28:48.049Z,7.80
2019-03-25T16:31:20.135Z,4.20
2019-03-25T16:33:50.903Z,3.37
2019-03-25T16:36:22.459Z,6.57
2019-03-25T16:38:53.507Z,2.53
2019-03-25T16:41:24.312Z,3.10
2019-03-25T16:43:55.137Z,4.60
2019-03-25T16:46:26.164Z,4.33
2019-03-25T16:48:56.911Z,6.00
2019-03-25T16:51:27.855Z,5.57
2019-03-25T16:54:00.562Z,8.00
2019-03-25T16:56:31.878Z,10.53
2019-03-25T16:59:02.772Z,7.00
2019-03-25T17:01:33.770Z,7.87
2019-03-25T17:04:04.586Z,9.60
2019-03-25T17:06:35.607Z,7.03
2019-03-25T17:09:08.222Z,10.03
2019-03-25T17:11:39.179Z,8.03
2019-03-25T17:14:12.159Z,5.20
2019-03-25T17:16:44.364Z,7.63
2019-03-25T17:19:15.438Z,13.23
2019-03-25T17:21:57.427Z,9.83
2019-03-25T17:24:19.086Z,7.00
2019-03-25T17:26:50.295Z,12.40
2019-03-25T17:29:21.369Z,14.10
2019-03-25T17:31:52.554Z,9.13
2019-03-25T17:34:23.352Z,5.83
2019-03-25T17:36:54.245Z,8.63
2019-03-25T17:39:25.481Z,6.00
2019-03-25T17:41:56.476Z,6.00
2019-03-25T17:44:27.260Z,13.30
2019-03-25T17:46:58.538Z,4.73
2019-03-25T17:49:29.651Z,3.93
2019-03-25T17:52:00.510Z,5.93
2019-03-25T17:54:31.830Z,4.77
2019-03-25T17:57:04.537Z,6.70
2019-03-25T17:59:35.521Z,3.93
2019-03-25T18:02:06.620Z,10.67
2019-03-25T18:04:41.043Z,11.93
2019-03-25T18:07:13.374Z,4.80
2019-03-25T18:09:44.494Z,7.77
2019-03-25T18:12:15.814Z,2.73
2019-03-25T18:14:46.888Z,3.80
2019-03-25T18:17:18.076Z,6.37
2019-03-25T18:19:48.870Z,5.40
2019-03-25T18:22:19.712Z,5.50
2019-03-25T18:24:51.035Z,11.30
2019-03-25T18:27:21.945Z,13.33
2019-03-25T18:29:53.015Z,8.80
2019-03-25T18:32:25.232Z,4.10
2019-03-25T18:34:56.386Z,11.60
2019-03-25T18:37:27.274Z,6.03
2019-03-25T18:39:58.445Z,8.33
2019-03-25T18:42:29.780Z,7.17
2019-03-25T18:45:02.409Z,11.53
2019-03-25T18:47:33.710Z,8.63
2019-03-25T18:50:04.919Z,8.87
2019-03-25T18:52:36.808Z,7.60
2019-03-25T18:55:07.895Z,8.60
2019-03-25T18:57:38.881Z,7.20
2019-03-25T19:00:10.477Z,10.93
2019-03-25T19:02:41.398Z,7.93
2019-03-25T19:05:12.629Z,14.90
2019-03-25T19:07:46.084Z,10.07
2019-03-25T19:10:21.372Z,9.00
2019-03-25T19:12:52.715Z,10.60
2019-03-25T19:15:23.904Z,16.60
2019-03-25T19:17:54.911Z,12.80
2019-03-25T19:20:25.920Z,13.70
2019-03-25T19:22:56.663Z,17.93
2019-03-25T19:25:27.906Z,16.10
2019-03-25T19:27:59.713Z,15.40
2019-03-25T19:30:30.400Z,11.37
2019-03-25T19:33:01.523Z,13.10
2019-03-25T19:35:32.955Z,15.27
2019-03-25T19:38:04.026Z,13.83
2019-03-25T19:40:35.237Z,15.00
2019-03-25T19:43:06.247Z,11.93
2019-03-25T19:45:37.248Z,14.13
2019-03-25T19:48:08.283Z,20.60
2019-03-25T19:50:39.305Z,14.27
2019-03-25T19:53:19.040Z,17.27
2019-03-25T19:55:43.686Z,13.43
2019-03-25T19:58:14.618Z,26.00
2019-03-25T20:00:45.616Z,15.07
2019-03-25T20:03:16.385Z,20.93
2019-03-25T20:05:47.864Z,16.27
2019-03-25T20:08:18.814Z,18.60
2019-03-25T20:10:49.799Z,23.13
2019-03-25T20:15:59.102Z,19.40
2019-03-25T20:18:30.438Z,15.40
2019-03-25T20:21:09.063Z,18.27
2019-03-25T20:30:53.193Z,19.10
2019-03-25T20:33:26.874Z,18.60
2019-03-25T20:35:58.095Z,23.03
2019-03-25T20:38:29.429Z,17.17
2019-03-25T20:41:00.260Z,14.23
2019-03-25T20:43:31.747Z,17.50
2019-03-25T20:46:02.669Z,19.53
2019-03-25T20:48:33.598Z,18.57
2019-03-25T20:51:04.523Z,25.07
2019-03-25T20:53:35.679Z,28.17
2019-03-25T20:56:06.811Z,17.13
2019-03-25T20:58:38.111Z,18.87
2019-03-25T21:01:09.610Z,18.67
2019-03-25T21:03:40.713Z,20.70
2019-03-25T21:06:11.861Z,16.03
2019-03-25T21:08:42.785Z,26.43
2019-03-25T21:11:13.638Z,20.97
2019-03-25T21:13:44.741Z,35.87
2019-03-25T21:16:15.874Z,20.43
2019-03-25T21:18:46.832Z,18.67
2019-03-25T21:21:18.102Z,13.67
2019-03-25T21:23:49.238Z,19.97
2019-03-25T21:26:20.515Z,20.53
2019-03-25T21:28:51.587Z,21.73
2019-03-25T21:31:22.831Z,17.00
2019-03-25T21:33:53.936Z,18.77
2019-03-25T21:36:25.412Z,17.17
2019-03-25T21:38:56.480Z,24.40
2019-03-25T21:41:31.412Z,20.10
2019-03-25T21:44:02.343Z,22.73
2019-03-25T21:46:33.269Z,22.47
2019-03-25T21:49:04.615Z,16.33
2019-03-25T21:51:35.757Z,22.37
2019-03-25T21:54:07.038Z,21.13
2019-03-25T21:56:38.157Z,16.27
2019-03-25T21:59:09.039Z,18.77
2019-03-25T22:01:40.211Z,21.00
2019-03-25T22:04:11.349Z,19.70
2019-03-25T22:06:42.419Z,17.37
2019-03-25T22:09:13.906Z,22.70
2019-03-25T22:11:45.561Z,14.47
2019-03-25T22:14:16.734Z,19.50
2019-03-25T22:16:48.152Z,14.67
2019-03-25T22:19:20.049Z,9.77
2019-03-25T22:21:51.433Z,18.37
2019-03-25T22:24:23.037Z,15.83
2019-03-25T22:26:54.382Z,11.27
2019-03-25T22:29:25.824Z,22.23
2019-03-25T22:31:57.092Z,12.70
2019-03-25T22:34:30.384Z,22.47
2019-03-25T22:37:01.858Z,17.50
2019-03-25T22:39:33.124Z,13.87
2019-03-25T22:42:04.234Z,14.93
2019-03-25T22:44:35.610Z,15.87
2019-03-25T22:47:08.182Z,12.40
2019-03-25T22:49:40.160Z,12.93
2019-03-25T22:52:11.224Z,15.97
2019-03-25T22:54:42.225Z,13.03
2019-03-25T22:57:14.197Z,11.90
2019-03-25T22:59:45.254Z,25.37
2019-03-25T23:02:16.611Z,17.97
2019-03-25T23:04:47.754Z,14.57
2019-03-25T23:07:20.098Z,18.50
2019-03-25T23:09:51.377Z,17.67
2019-03-25T23:12:23.712Z,13.53
2019-03-25T23:14:54.675Z,22.30
2019-03-25T23:17:25.612Z,11.47
2019-03-25T23:19:57.074Z,11.60
2019-03-25T23:22:28.245Z,17.60
2019-03-25T23:24:59.386Z,15.23
2019-03-25T23:27:30.769Z,21.60
2019-03-25T23:30:01.658Z,25.57
2019-03-25T23:32:32.632Z,24.10
2019-03-25T23:35:03.821Z,21.93
2019-03-25T23:37:35.293Z,19.17
2019-03-25T23:40:06.906Z,17.70
2019-03-25T23:42:38.088Z,25.93
2019-03-25T23:45:09.523Z,23.60
2019-03-25T23:47:40.571Z,13.23
2019-03-25T23:50:11.965Z,28.47
2019-03-25T23:52:42.874Z,18.20
2019-03-25T23:55:13.932Z,26.80
2019-03-25T23:57:45.225Z,11.77
